sensor_id;sensor_type;location;lat;lon;timestamp;pressure;altitude;pressure_sealevel;temperature;humidity
71857;BME280;63344;46.980;28.882;2023-02-23T00:01:53;101181.69;;;3.37;61.13
71857;BME280;63344;46.980;28.882;2023-02-23T00:04:22;101189.56;;;3.37;62.71
71857;BME280;63344;46.980;28.882;2023-02-23T00:06:50;101183.44;;;3.32;62.46
71857;BME280;63344;46.980;28.882;2023-02-23T00:09:18;101186.06;;;3.32;62.13
71857;BME280;63344;46.980;28.882;2023-02-23T00:11:56;101194.81;;;3.34;61.70
71857;BME280;63344;46.980;28.882;2023-02-23T00:14:25;101193.91;;;3.33;61.74
71857;BME280;63344;46.980;28.882;2023-02-23T00:16:53;101194.81;;;3.32;61.31
71857;BME280;63344;46.980;28.882;2023-02-23T00:19:21;101197.44;;;3.28;61.60
71857;BME280;63344;46.980;28.882;2023-02-23T00:21:53;101202.69;;;3.28;61.58
71857;BME280;63344;46.980;28.882;2023-02-23T00:24:20;101194.78;;;3.23;61.19
71857;BME280;63344;46.980;28.882;2023-02-23T00:26:48;101197.44;;;3.18;61.07
71857;BME280;63344;46.980;28.882;2023-02-23T00:29:20;101209.66;;;3.21;61.65
71857;BME280;63344;46.980;28.882;2023-02-23T00:31:49;101210.53;;;3.15;61.27
71857;BME280;63344;46.980;28.882;2023-02-23T00:34:19;101207.91;;;3.17;61.74
71857;BME280;63344;46.980;28.882;2023-02-23T00:36:53;101200.91;;;3.13;62.35
71857;BME280;63344;46.980;28.882;2023-02-23T00:39:22;101200.03;;;3.09;62.71
71857;BME280;63344;46.980;28.882;2023-02-23T00:41:55;101209.66;;;3.10;62.68
71857;BME280;63344;46.980;28.882;2023-02-23T00:44:28;101209.66;;;3.09;62.39
71857;BME280;63344;46.980;28.882;2023-02-23T00:46:55;101213.16;;;3.05;62.63
71857;BME280;63344;46.980;28.882;2023-02-23T00:49:23;101209.66;;;3.03;61.74
71857;BME280;63344;46.980;28.882;2023-02-23T00:51:50;101208.78;;;2.96;61.88
71857;BME280;63344;46.980;28.882;2023-02-23T00:54:21;101235.00;;;3.01;61.90
71857;BME280;63344;46.980;28.882;2023-02-23T00:56:49;101228.03;;;2.98;61.95
71857;BME280;63344;46.980;28.882;2023-02-23T00:59:17;101221.91;;;2.96;62.09
71857;BME280;63344;46.980;28.882;2023-02-23T01:01:44;101222.75;;;2.92;62.36
71857;BME280;63344;46.980;28.882;2023-02-23T01:04:12;101222.75;;;2.90;62.55
71857;BME280;63344;46.980;28.882;2023-02-23T01:06:40;101220.13;;;2.92;62.65
71857;BME280;63344;46.980;28.882;2023-02-23T01:09:12;101215.75;;;2.91;62.52
71857;BME280;63344;46.980;28.882;2023-02-23T01:11:40;101221.88;;;2.88;62.78
71857;BME280;63344;46.980;28.882;2023-02-23T01:14:09;101219.25;;;2.87;63.14
71857;BME280;63344;46.980;28.882;2023-02-23T01:16:38;101221.88;;;2.88;63.02
71857;BME280;63344;46.980;28.882;2023-02-23T01:19:05;101220.13;;;2.84;62.93
71857;BME280;63344;46.980;28.882;2023-02-23T01:21:35;101216.63;;;2.84;62.93
71857;BME280;63344;46.980;28.882;2023-02-23T01:24:04;101225.31;;;2.79;62.68
71857;BME280;63344;46.980;28.882;2023-02-23T01:26:34;101212.22;;;2.78;62.78
71857;BME280;63344;46.980;28.882;2023-02-23T01:29:07;101221.84;;;2.76;63.19
71857;BME280;63344;46.980;28.882;2023-02-23T01:31:37;101221.81;;;2.77;63.04
71857;BME280;63344;46.980;28.882;2023-02-23T01:34:06;101214.81;;;2.73;63.19
71857;BME280;63344;46.980;28.882;2023-02-23T01:36:36;101226.22;;;2.74;63.14
71857;BME280;63344;46.980;28.882;2023-02-23T01:39:04;101229.69;;;2.74;63.42
71857;BME280;63344;46.980;28.882;2023-02-23T01:41:35;101240.16;;;2.71;63.47
71857;BME280;63344;46.980;28.882;2023-02-23T01:46:31;101217.41;;;2.59;63.35
71857;BME280;63344;46.980;28.882;2023-02-23T01:49:00;101218.25;;;2.55;63.33
71857;BME280;63344;46.980;28.882;2023-02-23T01:51:37;101233.13;;;2.55;63.65
71857;BME280;63344;46.980;28.882;2023-02-23T01:54:09;101239.22;;;2.51;64.12
71857;BME280;63344;46.980;28.882;2023-02-23T01:56:44;101218.22;;;2.45;64.36
71857;BME280;63344;46.980;28.882;2023-02-23T01:59:15;101234.81;;;2.44;64.63
71857;BME280;63344;46.980;28.882;2023-02-23T02:01:43;101237.44;;;2.45;64.40
71857;BME280;63344;46.980;28.882;2023-02-23T02:04:11;101233.09;;;2.46;64.20
71857;BME280;63344;46.980;28.882;2023-02-23T02:06:44;101236.56;;;2.45;64.47
71857;BME280;63344;46.980;28.882;2023-02-23T02:09:15;101247.03;;;2.42;64.53
71857;BME280;63344;46.980;28.882;2023-02-23T02:11:43;101248.78;;;2.39;64.66
71857;BME280;63344;46.980;28.882;2023-02-23T02:14:19;101235.69;;;2.38;65.04
71857;BME280;63344;46.980;28.882;2023-02-23T02:22:35;101251.38;;;2.32;65.26
71857;BME280;63344;46.980;28.882;2023-02-23T02:39:36;101268.75;;;2.14;65.68
71857;BME280;63344;46.980;28.882;2023-02-23T02:42:33;101270.47;;;2.12;66.13
71857;BME280;63344;46.980;28.882;2023-02-23T02:47:43;101283.59;;;2.14;65.86
71857;BME280;63344;46.980;28.882;2023-02-23T02:50:29;101290.59;;;2.18;65.61
71857;BME280;63344;46.980;28.882;2023-02-23T02:53:06;101277.47;;;2.15;66.17
71857;BME280;63344;46.980;28.882;2023-02-23T02:55:36;101277.47;;;2.12;66.01
71857;BME280;63344;46.980;28.882;2023-02-23T02:58:06;101287.03;;;2.07;66.16
71857;BME280;63344;46.980;28.882;2023-02-23T03:00:37;101287.84;;;1.99;66.41
71857;BME280;63344;46.980;28.882;2023-02-23T03:06:13;101299.28;;;2.08;66.48
71857;BME280;63344;46.980;28.882;2023-02-23T03:12:56;101305.34;;;2.02;66.38
71857;BME280;63344;46.980;28.882;2023-02-23T03:18:56;101315.81;;;2.04;67.01
71857;BME280;63344;46.980;28.882;2023-02-23T03:21:53;101317.59;;;2.05;67.31
71857;BME280;63344;46.980;28.882;2023-02-23T03:25:08;101319.28;;;1.99;66.88
71857;BME280;63344;46.980;28.882;2023-02-23T03:30:57;101329.75;;;1.96;66.83
71857;BME280;63344;46.980;28.882;2023-02-23T03:34:02;101334.97;;;1.96;66.90
71857;BME280;63344;46.980;28.882;2023-02-23T03:37:03;101333.22;;;1.97;66.92
71857;BME280;63344;46.980;28.882;2023-02-23T03:40:08;101327.13;;;1.99;66.93
71857;BME280;63344;46.980;28.882;2023-02-23T03:42:57;101340.25;;;1.98;66.86
71857;BME280;63344;46.980;28.882;2023-02-23T03:45:45;101347.25;;;2.02;66.83
71857;BME280;63344;46.980;28.882;2023-02-23T03:48:35;101342.88;;;2.03;66.87
71857;BME280;63344;46.980;28.882;2023-02-23T03:51:23;101343.75;;;2.02;66.98
71857;BME280;63344;46.980;28.882;2023-02-23T03:54:22;101348.16;;;2.04;66.29
71857;BME280;63344;46.980;28.882;2023-02-23T03:57:11;101349.00;;;2.03;66.15
71857;BME280;63344;46.980;28.882;2023-02-23T04:00:05;101357.69;;;1.99;66.66
71857;BME280;63344;46.980;28.882;2023-02-23T04:02:54;101354.22;;;2.00;66.32
71857;BME280;63344;46.980;28.882;2023-02-23T04:05:42;101359.47;;;2.00;66.82
71857;BME280;63344;46.980;28.882;2023-02-23T04:08:34;101352.50;;;2.04;66.89
71857;BME280;63344;46.980;28.882;2023-02-23T04:11:41;101356.84;;;2.02;66.28
71857;BME280;63344;46.980;28.882;2023-02-23T04:17:36;101356.91;;;2.06;66.45
71857;BME280;63344;46.980;28.882;2023-02-23T04:20:04;101346.41;;;2.06;66.58
71857;BME280;63344;46.980;28.882;2023-02-23T04:22:32;101360.41;;;2.08;66.18
71857;BME280;63344;46.980;28.882;2023-02-23T04:25:01;101367.38;;;2.06;65.98
71857;BME280;63344;46.980;28.882;2023-02-23T04:27:28;101353.38;;;2.04;65.84
71857;BME280;63344;46.980;28.882;2023-02-23T04:29:56;101369.13;;;2.09;65.86
71857;BME280;63344;46.980;28.882;2023-02-23T04:32:23;101364.78;;;2.11;65.70
71857;BME280;63344;46.980;28.882;2023-02-23T04:34:50;101359.53;;;2.09;65.61
71857;BME280;63344;46.980;28.882;2023-02-23T04:37:18;101365.63;;;2.07;65.91
71857;BME280;63344;46.980;28.882;2023-02-23T04:39:45;101364.81;;;2.12;65.79
71857;BME280;63344;46.980;28.882;2023-02-23T04:42:16;101363.00;;;2.07;65.65
71857;BME280;63344;46.980;28.882;2023-02-23T04:44:44;101371.75;;;2.09;65.31
71857;BME280;63344;46.980;28.882;2023-02-23T04:47:13;101374.34;;;2.07;65.07
71857;BME280;63344;46.980;28.882;2023-02-23T04:49:41;101375.19;;;2.03;65.53
71857;BME280;63344;46.980;28.882;2023-02-23T04:52:09;101377.78;;;1.98;65.35
71857;BME280;63344;46.980;28.882;2023-02-23T04:54:39;101383.00;;;1.94;65.84
71857;BME280;63344;46.980;28.882;2023-02-23T04:57:08;101389.94;;;1.93;65.79
71857;BME280;63344;46.980;28.882;2023-02-23T04:59:36;101388.22;;;1.92;66.10
71857;BME280;63344;46.980;28.882;2023-02-23T05:02:04;101381.19;;;1.91;66.18
71857;BME280;63344;46.980;28.882;2023-02-23T05:04:34;101393.47;;;1.94;66.23
71857;BME280;63344;46.980;28.882;2023-02-23T05:07:03;101396.09;;;1.97;65.99
71857;BME280;63344;46.980;28.882;2023-02-23T05:09:30;101396.13;;;2.02;65.90
71857;BME280;63344;46.980;28.882;2023-02-23T05:12:01;101397.88;;;2.01;66.16
71857;BME280;63344;46.980;28.882;2023-02-23T05:14:29;101402.22;;;1.97;66.04
71857;BME280;63344;46.980;28.882;2023-02-23T05:16:57;101400.44;;;1.95;66.02
71857;BME280;63344;46.980;28.882;2023-02-23T05:19:26;101410.09;;;1.96;65.87
71857;BME280;63344;46.980;28.882;2023-02-23T05:21:55;101412.69;;;1.94;66.05
71857;BME280;63344;46.980;28.882;2023-02-23T05:24:23;101403.88;;;1.89;66.04
71857;BME280;63344;46.980;28.882;2023-02-23T05:26:53;101418.72;;;1.89;66.04
71857;BME280;63344;46.980;28.882;2023-02-23T05:29:20;101428.34;;;1.91;66.22
71857;BME280;63344;46.980;28.882;2023-02-23T05:31:54;101422.25;;;1.91;66.19
71857;BME280;63344;46.980;28.882;2023-02-23T05:34:22;101431.03;;;1.97;65.97
71857;BME280;63344;46.980;28.882;2023-02-23T05:36:54;101428.41;;;1.94;66.04
71857;BME280;63344;46.980;28.882;2023-02-23T05:39:22;101436.34;;;2.02;66.12
71857;BME280;63344;46.980;28.882;2023-02-23T05:41:50;101442.44;;;2.03;66.43
71857;BME280;63344;46.980;28.882;2023-02-23T05:44:18;101447.69;;;2.06;66.13
71857;BME280;63344;46.980;28.882;2023-02-23T05:46:46;101455.63;;;2.10;65.91
71857;BME280;63344;46.980;28.882;2023-02-23T05:49:13;101453.03;;;2.12;66.07
71857;BME280;63344;46.980;28.882;2023-02-23T05:51:43;101468.78;;;2.18;65.92
71857;BME280;63344;46.980;28.882;2023-02-23T05:54:32;101462.63;;;2.13;65.64
71857;BME280;63344;46.980;28.882;2023-02-23T05:57:01;101471.41;;;2.16;65.67
71857;BME280;63344;46.980;28.882;2023-02-23T05:59:28;101475.75;;;2.16;65.00
71857;BME280;63344;46.980;28.882;2023-02-23T06:01:56;101477.56;;;2.20;65.15
71857;BME280;63344;46.980;28.882;2023-02-23T06:04:23;101481.03;;;2.21;65.66
71857;BME280;63344;46.980;28.882;2023-02-23T06:06:50;101488.06;;;2.25;65.14
71857;BME280;63344;46.980;28.882;2023-02-23T06:09:19;101485.38;;;2.17;65.09
71857;BME280;63344;46.980;28.882;2023-02-23T06:11:57;101503.78;;;2.23;65.10
71857;BME280;63344;46.980;28.882;2023-02-23T06:14:28;101506.38;;;2.20;64.39
71857;BME280;63344;46.980;28.882;2023-02-23T06:16:56;101505.47;;;2.18;63.52
71857;BME280;63344;46.980;28.882;2023-02-23T06:19:24;101493.22;;;2.14;63.02
71857;BME280;63344;46.980;28.882;2023-02-23T06:21:53;101508.09;;;2.18;63.88
71857;BME280;63344;46.980;28.882;2023-02-23T06:24:22;101509.00;;;2.20;64.20
71857;BME280;63344;46.980;28.882;2023-02-23T06:26:50;101511.56;;;2.14;64.37
71857;BME280;63344;46.980;28.882;2023-02-23T06:29:19;101518.56;;;2.16;63.91
71857;BME280;63344;46.980;28.882;2023-02-23T06:31:48;101521.22;;;2.21;63.50
71857;BME280;63344;46.980;28.882;2023-02-23T06:34:17;101513.28;;;2.15;63.56
71857;BME280;63344;46.980;28.882;2023-02-23T06:36:45;101519.47;;;2.20;63.39
71857;BME280;63344;46.980;28.882;2023-02-23T06:39:12;101515.03;;;2.14;63.71
71857;BME280;63344;46.980;28.882;2023-02-23T06:41:40;101523.75;;;2.10;63.04
71857;BME280;63344;46.980;28.882;2023-02-23T06:44:07;101521.06;;;2.04;63.67
71857;BME280;63344;46.980;28.882;2023-02-23T06:46:42;101528.91;;;2.06;64.34
71857;BME280;63344;46.980;28.882;2023-02-23T06:49:12;101537.75;;;2.14;63.76
71857;BME280;63344;46.980;28.882;2023-02-23T06:51:43;101534.25;;;2.12;63.02
71857;BME280;63344;46.980;28.882;2023-02-23T06:54:12;101534.25;;;2.15;62.88
71857;BME280;63344;46.980;28.882;2023-02-23T06:56:42;101522.88;;;2.10;62.71
71857;BME280;63344;46.980;28.882;2023-02-23T06:59:10;101534.31;;;2.18;62.18
71857;BME280;63344;46.980;28.882;2023-02-23T07:01:38;101531.63;;;2.15;61.82
71857;BME280;63344;46.980;28.882;2023-02-23T07:04:05;101539.56;;;2.21;62.43
71857;BME280;63344;46.980;28.882;2023-02-23T07:06:33;101543.97;;;2.25;62.34
71857;BME280;63344;46.980;28.882;2023-02-23T07:09:00;101541.34;;;2.22;62.15
71857;BME280;63344;46.980;28.882;2023-02-23T07:11:28;101542.19;;;2.21;62.02
71857;BME280;63344;46.980;28.882;2023-02-23T07:14:08;101528.13;;;2.13;62.45
71857;BME280;63344;46.980;28.882;2023-02-23T07:16:42;101539.56;;;2.21;62.31
71857;BME280;63344;46.980;28.882;2023-02-23T07:19:11;101549.19;;;2.22;62.14
71857;BME280;63344;46.980;28.882;2023-02-23T07:21:39;101553.59;;;2.26;62.36
71857;BME280;63344;46.980;28.882;2023-02-23T07:24:06;101541.34;;;2.25;62.11
71857;BME280;63344;46.980;28.882;2023-02-23T07:26:36;101550.09;;;2.27;62.07
71857;BME280;63344;46.980;28.882;2023-02-23T07:29:04;101558.13;;;2.43;62.21
71857;BME280;63344;46.980;28.882;2023-02-23T07:31:40;101555.63;;;2.55;61.88
71857;BME280;63344;46.980;28.882;2023-02-23T07:34:10;101558.38;;;2.69;61.57
71857;BME280;63344;46.980;28.882;2023-02-23T07:36:38;101562.81;;;2.79;61.16
71857;BME280;63344;46.980;28.882;2023-02-23T07:39:05;101575.19;;;2.92;61.01
71857;BME280;63344;46.980;28.882;2023-02-23T07:41:36;101569.16;;;3.03;61.06
71857;BME280;63344;46.980;28.882;2023-02-23T07:44:04;101576.19;;;3.11;60.18
71857;BME280;63344;46.980;28.882;2023-02-23T07:46:47;101571.78;;;3.07;59.67
71857;BME280;63344;46.980;28.882;2023-02-23T07:49:31;101575.31;;;3.09;59.60
71857;BME280;63344;46.980;28.882;2023-02-23T07:52:03;101579.66;;;3.07;59.44
71857;BME280;63344;46.980;28.882;2023-02-23T07:54:31;101577.91;;;3.06;59.71
71857;BME280;63344;46.980;28.882;2023-02-23T07:57:05;101567.44;;;3.06;59.72
71857;BME280;63344;46.980;28.882;2023-02-23T07:59:32;101576.25;;;3.19;59.47
71857;BME280;63344;46.980;28.882;2023-02-23T08:02:00;101576.31;;;3.27;59.67
71857;BME280;63344;46.980;28.882;2023-02-23T08:04:27;101581.59;;;3.33;59.05
71857;BME280;63344;46.980;28.882;2023-02-23T08:06:54;101572.84;;;3.28;59.10
71857;BME280;63344;46.980;28.882;2023-02-23T08:09:21;101581.63;;;3.36;59.46
71857;BME280;63344;46.980;28.882;2023-02-23T08:11:49;101586.94;;;3.51;59.17
71857;BME280;63344;46.980;28.882;2023-02-23T08:14:16;101580.06;;;3.66;58.62
71857;BME280;63344;46.980;28.882;2023-02-23T08:16:49;101588.84;;;3.74;57.74
71857;BME280;63344;46.980;28.882;2023-02-23T08:19:17;101588.84;;;3.77;57.52
71857;BME280;63344;46.980;28.882;2023-02-23T08:21:50;101587.13;;;3.85;57.33
71857;BME280;63344;46.980;28.882;2023-02-23T08:24:20;101581.03;;;3.86;56.05
71857;BME280;63344;46.980;28.882;2023-02-23T08:27:03;101590.72;;;4.09;55.81
71857;BME280;63344;46.980;28.882;2023-02-23T08:29:30;101593.41;;;4.18;55.54
71857;BME280;63344;46.980;28.882;2023-02-23T08:32:01;101591.66;;;4.29;55.19
71857;BME280;63344;46.980;28.882;2023-02-23T08:34:28;101607.47;;;4.38;54.32
71857;BME280;63344;46.980;28.882;2023-02-23T08:36:59;101614.50;;;4.49;53.82
71857;BME280;63344;46.980;28.882;2023-02-23T08:39:27;101592.59;;;4.53;53.64
71857;BME280;63344;46.980;28.882;2023-02-23T08:42:02;101598.78;;;4.78;54.07
71857;BME280;63344;46.980;28.882;2023-02-23T08:44:29;101611.97;;;4.86;53.60
71857;BME280;63344;46.980;28.882;2023-02-23T08:46:58;101604.94;;;4.94;52.75
71857;BME280;63344;46.980;28.882;2023-02-23T08:49:31;101607.56;;;5.03;51.48
71857;BME280;63344;46.980;28.882;2023-02-23T08:51:59;101603.19;;;5.02;51.31
71857;BME280;63344;46.980;28.882;2023-02-23T08:54:33;101608.44;;;5.10;51.60
71857;BME280;63344;46.980;28.882;2023-02-23T08:57:04;101604.03;;;5.23;51.28
71857;BME280;63344;46.980;28.882;2023-02-23T08:59:31;101612.84;;;5.28;50.52
71857;BME280;63344;46.980;28.882;2023-02-23T09:01:59;101596.16;;;5.32;50.45
71857;BME280;63344;46.980;28.882;2023-02-23T09:04:26;101601.38;;;5.49;50.52
71857;BME280;63344;46.980;28.882;2023-02-23T09:07:14;101599.59;;;5.58;49.74
71857;BME280;63344;46.980;28.882;2023-02-23T09:09:42;101601.38;;;5.59;50.25
71857;BME280;63344;46.980;28.882;2023-02-23T09:12:10;101604.78;;;6.00;50.02
71857;BME280;63344;46.980;28.882;2023-02-23T09:14:37;101605.44;;;6.45;47.93
71857;BME280;63344;46.980;28.882;2023-02-23T09:17:05;101601.41;;;7.17;47.81
71857;BME280;63344;46.980;28.882;2023-02-23T09:19:34;101597.69;;;8.79;43.43
71857;BME280;63344;46.980;28.882;2023-02-23T09:22:02;101601.41;;;8.66;42.36
71857;BME280;63344;46.980;28.882;2023-02-23T09:24:30;101610.03;;;8.15;42.53
71857;BME280;63344;46.980;28.882;2023-02-23T09:27:02;101608.16;;;8.23;42.00
71857;BME280;63344;46.980;28.882;2023-02-23T09:29:29;101611.28;;;9.10;40.85
71857;BME280;63344;46.980;28.882;2023-02-23T09:31:58;101602.19;;;10.59;37.89
71857;BME280;63344;46.980;28.882;2023-02-23T09:34:25;101600.78;;;11.18;36.76
71857;BME280;63344;46.980;28.882;2023-02-23T09:37:00;101599.00;;;11.84;36.08
71857;BME280;63344;46.980;28.882;2023-02-23T09:39:28;101604.94;;;12.54;34.55
71857;BME280;63344;46.980;28.882;2023-02-23T09:48:20;101601.53;;;13.32;31.54
71857;BME280;63344;46.980;28.882;2023-02-23T09:50:44;101611.75;;;12.35;32.91
71857;BME280;63344;46.980;28.882;2023-02-23T09:56:06;101603.06;;;13.11;31.57
71857;BME280;63344;46.980;28.882;2023-02-23T09:58:49;101606.22;;;14.23;30.21
71857;BME280;63344;46.980;28.882;2023-02-23T10:07:05;101605.06;;;16.02;28.13
71857;BME280;63344;46.980;28.882;2023-02-23T10:10:18;101602.38;;;13.83;29.14
71857;BME280;63344;46.980;28.882;2023-02-23T10:12:57;101604.59;;;13.20;30.90
71857;BME280;63344;46.980;28.882;2023-02-23T10:15:49;101614.50;;;13.68;30.67
71857;BME280;63344;46.980;28.882;2023-02-23T10:21:39;101598.13;;;13.54;30.48
71857;BME280;63344;46.980;28.882;2023-02-23T10:26:50;101595.84;;;13.92;30.03
71857;BME280;63344;46.980;28.882;2023-02-23T10:29:25;101601.19;;;13.67;30.36
71857;BME280;63344;46.980;28.882;2023-02-23T10:32:45;101592.84;;;11.82;31.46
71857;BME280;63344;46.980;28.882;2023-02-23T10:35:20;101599.94;;;9.99;34.59
71857;BME280;63344;46.980;28.882;2023-02-23T10:38:01;101597.91;;;9.66;36.35
71857;BME280;63344;46.980;28.882;2023-02-23T10:40:32;101586.38;;;11.92;33.40
71857;BME280;63344;46.980;28.882;2023-02-23T10:43:00;101572.38;;;13.51;31.32
71857;BME280;63344;46.980;28.882;2023-02-23T10:45:33;101579.34;;;14.73;29.53
71857;BME280;63344;46.980;28.882;2023-02-23T10:48:29;101576.19;;;14.64;29.26
71857;BME280;63344;46.980;28.882;2023-02-23T10:50:58;101575.44;;;14.82;29.88
71857;BME280;63344;46.980;28.882;2023-02-23T10:53:34;101563.03;;;14.80;29.58
71857;BME280;63344;46.980;28.882;2023-02-23T10:56:04;101564.59;;;14.18;29.03
71857;BME280;63344;46.980;28.882;2023-02-23T10:58:51;101568.16;;;12.92;30.91
71857;BME280;63344;46.980;28.882;2023-02-23T11:01:47;101568.91;;;13.49;30.51
71857;BME280;63344;46.980;28.882;2023-02-23T11:04:30;101556.66;;;13.17;30.83
71857;BME280;63344;46.980;28.882;2023-02-23T11:07:22;101578.34;;;12.80;30.93
71857;BME280;63344;46.980;28.882;2023-02-23T11:09:55;101562.88;;;13.44;30.33
71857;BME280;63344;46.980;28.882;2023-02-23T11:13:01;101565.84;;;13.60;29.85
71857;BME280;63344;46.980;28.882;2023-02-23T11:15:30;101559.38;;;13.42;29.87
71857;BME280;63344;46.980;28.882;2023-02-23T11:18:21;101554.16;;;13.39;29.97
71857;BME280;63344;46.980;28.882;2023-02-23T11:20:50;101566.41;;;12.91;30.44
71857;BME280;63344;46.980;28.882;2023-02-23T11:25:51;101565.84;;;13.08;30.50
71857;BME280;63344;46.980;28.882;2023-02-23T11:28:32;101555.91;;;14.34;29.12
71857;BME280;63344;46.980;28.882;2023-02-23T11:31:22;101563.28;;;14.73;28.19
71857;BME280;63344;46.980;28.882;2023-02-23T11:33:55;101558.66;;;14.09;28.62
71857;BME280;63344;46.980;28.882;2023-02-23T11:36:35;101565.31;;;13.50;29.06
71857;BME280;63344;46.980;28.882;2023-02-23T11:41:34;101560.75;;;12.47;30.93
71857;BME280;63344;46.980;28.882;2023-02-23T11:44:03;101557.22;;;12.17;31.33
71857;BME280;63344;46.980;28.882;2023-02-23T11:46:35;101559.31;;;12.35;32.05
71857;BME280;63344;46.980;28.882;2023-02-23T11:49:06;101551.69;;;12.80;31.12
71857;BME280;63344;46.980;28.882;2023-02-23T11:51:38;101553.25;;;11.38;32.45
71857;BME280;63344;46.980;28.882;2023-02-23T11:54:35;101560.72;;;10.13;34.93
71857;BME280;63344;46.980;28.882;2023-02-23T11:57:03;101557.41;;;10.42;34.31
71857;BME280;63344;46.980;28.882;2023-02-23T11:59:38;101550.41;;;10.40;34.88
71857;BME280;63344;46.980;28.882;2023-02-23T12:04:44;101557.09;;;10.92;33.68
71857;BME280;63344;46.980;28.882;2023-02-23T12:13:37;101553.19;;;12.04;32.67
71857;BME280;63344;46.980;28.882;2023-02-23T12:27:01;101554.16;;;8.94;36.95
71857;BME280;63344;46.980;28.882;2023-02-23T12:32:38;101542.25;;;9.65;35.64
71857;BME280;63344;46.980;28.882;2023-02-23T12:40:27;101554.31;;;8.26;38.74
71857;BME280;63344;46.980;28.882;2023-02-23T12:43:00;101554.50;;;8.10;38.66
71857;BME280;63344;46.980;28.882;2023-02-23T12:45:44;101549.78;;;7.67;39.46
71857;BME280;63344;46.980;28.882;2023-02-23T12:52:24;101539.31;;;8.84;38.11
71857;BME280;63344;46.980;28.882;2023-02-23T12:54:25;101544.41;;;8.96;37.50
71857;BME280;63344;46.980;28.882;2023-02-23T13:00:09;101541.22;;;8.15;39.11
71857;BME280;63344;46.980;28.882;2023-02-23T13:16:50;101525.28;;;7.50;39.63
71857;BME280;63344;46.980;28.882;2023-02-23T13:19:40;101541.22;;;7.44;40.43
71857;BME280;63344;46.980;28.882;2023-02-23T13:24:59;101530.28;;;8.40;39.14
71857;BME280;63344;46.980;28.882;2023-02-23T13:27:42;101532.28;;;8.83;37.91
71857;BME280;63344;46.980;28.882;2023-02-23T13:30:12;101538.63;;;8.72;37.86
71857;BME280;63344;46.980;28.882;2023-02-23T13:32:39;101536.91;;;8.68;37.52
71857;BME280;63344;46.980;28.882;2023-02-23T13:35:12;101530.47;;;8.27;38.35
71857;BME280;63344;46.980;28.882;2023-02-23T13:37:48;101544.16;;;7.95;38.88
71857;BME280;63344;46.980;28.882;2023-02-23T13:43:12;101544.22;;;7.08;40.76
71857;BME280;63344;46.980;28.882;2023-02-23T13:46:01;101538.38;;;6.74;41.84
71857;BME280;63344;46.980;28.882;2023-02-23T13:51:53;101539.44;;;6.47;42.58
71857;BME280;63344;46.980;28.882;2023-02-23T13:54:33;101535.13;;;6.36;42.61
71857;BME280;63344;46.980;28.882;2023-02-23T13:57:12;101543.06;;;6.30;42.61
71857;BME280;63344;46.980;28.882;2023-02-23T13:59:45;101551.06;;;6.15;43.10
71857;BME280;63344;46.980;28.882;2023-02-23T14:02:36;101534.47;;;5.91;43.77
71857;BME280;63344;46.980;28.882;2023-02-23T14:05:18;101546.78;;;5.86;43.86
71857;BME280;63344;46.980;28.882;2023-02-23T14:07:51;101545.91;;;5.83;44.25
71857;BME280;63344;46.980;28.882;2023-02-23T14:10:26;101542.44;;;5.76;45.10
71857;BME280;63344;46.980;28.882;2023-02-23T14:15:44;101534.59;;;5.61;45.14
71857;BME280;63344;46.980;28.882;2023-02-23T14:27:18;101532.84;;;5.55;45.38
71857;BME280;63344;46.980;28.882;2023-02-23T14:32:40;101529.31;;;5.61;45.34
71857;BME280;63344;46.980;28.882;2023-02-23T14:35:49;101533.69;;;5.66;44.72
71857;BME280;63344;46.980;28.882;2023-02-23T14:38:34;101536.38;;;5.63;44.92
71857;BME280;63344;46.980;28.882;2023-02-23T14:41:29;101534.59;;;5.64;45.10
71857;BME280;63344;46.980;28.882;2023-02-23T14:46:55;101530.22;;;5.49;45.20
71857;BME280;63344;46.980;28.882;2023-02-23T14:49:27;101543.41;;;5.50;45.55
71857;BME280;63344;46.980;28.882;2023-02-23T14:54:38;101528.50;;;5.49;45.34
71857;BME280;63344;46.980;28.882;2023-02-23T14:57:16;101537.28;;;5.44;45.75
71857;BME280;63344;46.980;28.882;2023-02-23T14:59:57;101533.78;;;5.32;45.99
71857;BME280;63344;46.980;28.882;2023-02-23T15:02:28;101525.06;;;5.27;45.98
71857;BME280;63344;46.980;28.882;2023-02-23T15:04:56;101538.22;;;5.19;46.41
71857;BME280;63344;46.980;28.882;2023-02-23T15:07:39;101537.34;;;5.14;46.73
71857;BME280;63344;46.980;28.882;2023-02-23T15:10:14;101536.47;;;5.11;47.53
71857;BME280;63344;46.980;28.882;2023-02-23T15:12:45;101527.69;;;5.01;46.89
71857;BME280;63344;46.980;28.882;2023-02-23T15:15:42;101543.50;;;5.01;47.25
71857;BME280;63344;46.980;28.882;2023-02-23T15:18:21;101540.00;;;4.97;47.60
71857;BME280;63344;46.980;28.882;2023-02-23T15:20:57;101540.88;;;4.98;47.70
71857;BME280;63344;46.980;28.882;2023-02-23T15:23:35;101538.25;;;4.95;48.13
71857;BME280;63344;46.980;28.882;2023-02-23T15:26:27;101538.25;;;4.89;47.72
71857;BME280;63344;46.980;28.882;2023-02-23T15:29:05;101550.53;;;4.87;48.26
71857;BME280;63344;46.980;28.882;2023-02-23T15:31:32;101541.75;;;4.78;47.89
71857;BME280;63344;46.980;28.882;2023-02-23T15:34:01;101551.44;;;4.73;48.19
71857;BME280;63344;46.980;28.882;2023-02-23T15:36:30;101543.50;;;4.67;48.27
71857;BME280;63344;46.980;28.882;2023-02-23T15:39:04;101547.91;;;4.57;48.45
71857;BME280;63344;46.980;28.882;2023-02-23T15:41:36;101545.28;;;4.50;48.90
71857;BME280;63344;46.980;28.882;2023-02-23T15:44:22;101561.03;;;4.44;49.24
71857;BME280;63344;46.980;28.882;2023-02-23T15:47:04;101532.97;;;4.30;49.80
71857;BME280;63344;46.980;28.882;2023-02-23T15:49:36;101558.38;;;4.34;50.09